Time;durP1;ratioP1;P1;durP2;ratioP2;P2;SDS_P1;SDS_P2;PMS_P1;PMS_P2;Temp;Humidity;BMP_temperature;BMP_pressure;BME280_temperature;BME280_humidity;BME280_pressure;Samples;Min_cycle;Max_cycle;Signal;HPM_P1;HPM_P2
2022/06/21 00:00:53;;;;;;;3.95;3.05;;;;;;;15.72;76.92;99653.80;3428622;82;20949;-85
2022/06/21 00:05:48;;;;;;;2.67;2.55;;;;;;;15.66;77.14;99661.81;3326462;83;20967;-85
2022/06/21 00:10:39;;;;;;;2.62;2.50;;;;;;;15.65;77.10;99663.58;3422485;82;20977;-85
2022/06/21 00:15:30;;;;;;;2.10;1.90;;;;;;;15.64;77.21;99662.69;3377453;83;20996;-85
2022/06/21 00:20:25;;;;;;;1.60;1.50;;;;;;;15.56;77.10;99655.45;3400343;83;20994;-85
2022/06/21 00:25:22;;;;;;;1.82;1.50;;;;;;;15.45;76.67;99650.86;3372639;83;21011;-85
2022/06/21 00:30:15;;;;;;;1.60;1.50;;;;;;;15.34;77.21;99658.07;3395379;82;21165;-84
2022/06/21 00:35:14;;;;;;;2.65;1.65;;;;;;;15.19;77.26;99656.16;3379499;81;20917;-86
2022/06/21 00:40:29;;;;;;;1.60;1.50;;;;;;;15.15;77.49;99654.92;3458633;82;21067;-86
2022/06/21 00:45:38;;;;;;;3.30;1.67;;;;;;;15.19;77.77;99661.41;3416339;82;20983;-85
2022/06/21 00:50:37;;;;;;;1.40;1.30;;;;;;;15.14;77.25;99655.38;3356437;84;20983;-85
2022/06/21 00:56:02;;;;;;;1.70;1.60;;;;;;;15.08;77.00;99655.94;3443883;81;21442;-86
2022/06/21 01:01:01;;;;;;;1.50;1.40;;;;;;;14.93;76.67;99661.01;3432726;81;20987;-86
2022/06/21 01:05:55;;;;;;;1.62;1.52;;;;;;;14.80;76.94;99661.22;3430647;81;21562;-85
2022/06/21 01:10:52;;;;;;;1.55;1.27;;;;;;;14.81;76.90;99660.34;3402079;83;20971;-86
2022/06/21 01:15:46;;;;;;;1.47;1.37;;;;;;;14.81;76.65;99654.26;3316097;84;21500;-85
2022/06/21 01:20:43;;;;;;;1.95;1.70;;;;;;;14.66;76.27;99656.21;3302338;84;21038;-85
2022/06/21 01:25:54;;;;;;;;;;;;;;;14.60;76.34;99658.09;3348824;84;21023;-85
2022/06/21 01:30:51;;;;;;;2.75;2.55;;;;;;;14.57;76.66;99656.79;3376555;83;21154;-85
2022/06/21 01:35:50;;;;;;;3.40;3.20;;;;;;;14.52;76.47;99658.16;3352581;83;21020;-84
2022/06/21 01:40:46;;;;;;;4.12;3.83;;;;;;;14.51;76.47;99650.37;3426203;82;21427;-85
2022/06/21 01:45:49;;;;;;;4.10;3.80;;;;;;;14.53;76.21;99648.59;3425003;82;21538;-84
2022/06/21 01:50:44;;;;;;;4.08;3.55;;;;;;;14.47;75.93;99652.16;3443791;82;21015;-84
2022/06/21 01:55:50;;;;;;;4.20;3.47;;;;;;;14.38;75.85;99651.86;3405849;82;21024;-84
2022/06/21 02:00:46;;;;;;;3.52;2.95;;;;;;;14.33;75.51;99652.83;3455502;82;21015;-85
2022/06/21 02:05:54;;;;;;;7.62;3.22;;;;;;;14.24;75.37;99661.67;3470079;81;20976;-84
2022/06/21 02:10:54;;;;;;;3.37;2.75;;;;;;;14.07;75.32;99645.77;3453984;82;21039;-84
2022/06/21 02:15:59;;;;;;;3.27;3.08;;;;;;;13.98;74.97;99639.36;3443513;82;20976;-84
2022/06/21 02:21:05;;;;;;;4.20;2.72;;;;;;;13.91;75.14;99636.42;3401452;82;21122;-84
2022/06/21 02:25:58;;;;;;;4.65;2.87;;;;;;;13.91;75.69;99657.32;3447476;82;20938;-84
2022/06/21 02:30:53;;;;;;;3.65;3.37;;;;;;;13.88;75.33;99661.31;3451571;81;20956;-84
2022/06/21 02:35:55;;;;;;;3.58;3.27;;;;;;;13.78;75.33;99657.08;3449531;81;20983;-84
2022/06/21 02:40:55;;;;;;;3.87;3.58;;;;;;;13.69;75.17;99666.75;3480532;81;20956;-84
2022/06/21 02:46:04;;;;;;;4.45;3.90;;;;;;;13.64;75.21;99670.30;3437008;81;22045;-84
2022/06/21 02:51:01;;;;;;;3.77;3.45;;;;;;;13.63;75.68;99685.54;3448785;81;21490;-84
2022/06/21 02:56:07;;;;;;;5.15;4.12;;;;;;;13.70;75.65;99678.94;3423244;81;21051;-84
2022/06/21 03:01:03;;;;;;;3.60;3.30;;;;;;;13.73;75.45;99681.94;3472918;81;20975;-84
2022/06/21 03:05:59;;;;;;;3.75;2.90;;;;;;;13.71;75.62;99674.12;3433220;81;21031;-84
2022/06/21 03:10:51;;;;;;;3.98;3.67;;;;;;;13.79;75.78;99662.70;3419226;81;21755;-84
2022/06/21 03:15:48;;;;;;;5.62;4.15;;;;;;;13.78;75.49;99666.22;3401969;81;20978;-84
2022/06/21 03:20:41;;;;;;;4.58;4.17;;;;;;;14.15;75.25;99663.08;3441658;81;20995;-84
2022/06/21 03:25:44;;;;;;;5.00;4.37;;;;;;;14.08;74.83;99657.95;3412338;81;20990;-84
2022/06/21 03:30:37;;;;;;;6.92;3.75;;;;;;;14.07;74.89;99653.61;3435967;81;21023;-85
2022/06/21 03:35:32;;;;;;;5.58;4.53;;;;;;;14.00;75.09;99657.19;3428647;82;21736;-84
2022/06/21 03:45:37;;;;;;;5.10;4.67;;;;;;;13.94;75.32;99659.91;3394958;82;21130;-84
2022/06/21 03:50:46;;;;;;;5.10;4.58;;;;;;;13.94;75.41;99665.13;3348709;83;20975;-84
2022/06/21 03:56:00;;;;;;;7.20;5.15;;;;;;;13.98;75.02;99660.72;3363088;84;21174;-84
2022/06/21 04:01:12;;;;;;;5.00;4.60;;;;;;;14.09;75.17;99663.63;3334067;84;21019;-84
2022/06/21 04:06:14;;;;;;;5.90;5.40;;;;;;;14.16;74.81;99664.83;3311142;84;21017;-84
2022/06/21 04:11:20;;;;;;;4.95;4.53;;;;;;;14.17;74.68;99654.80;3339867;84;20988;-85
2022/06/21 04:16:23;;;;;;;4.87;4.37;;;;;;;14.19;73.88;99649.96;3363320;84;20990;-84
2022/06/21 04:21:19;;;;;;;6.00;4.05;;;;;;;14.32;74.22;99661.09;3321846;84;21438;-85
2022/06/21 04:26:19;;;;;;;4.87;3.77;;;;;;;14.51;73.50;99659.52;3325058;83;21050;-84
2022/06/21 04:31:40;;;;;;;4.30;3.90;;;;;;;14.53;73.42;99658.59;3356837;84;21565;-85
2022/06/21 04:36:43;;;;;;;4.37;3.98;;;;;;;14.54;73.26;99663.37;3344932;82;20980;-82
2022/06/21 04:41:45;;;;;;;3.60;3.27;;;;;;;14.72;72.81;99653.97;3402810;83;20913;-82
2022/06/21 04:47:00;;;;;;;3.95;3.35;;;;;;;14.92;72.49;99654.92;3347647;83;21609;-82
2022/06/21 04:51:57;;;;;;;3.83;3.37;;;;;;;14.70;71.93;99660.09;3352054;82;22190;-82
2022/06/21 04:57:24;;;;;;;6.53;3.87;;;;;;;14.66;72.06;99657.52;3405172;83;21485;-82
2022/06/21 05:02:26;;;;;;;4.73;3.83;;;;;;;14.78;71.39;99654.30;3377707;83;20983;-82
2022/06/21 05:07:21;;;;;;;4.45;3.90;;;;;;;14.76;71.50;99650.85;3411928;82;20992;-82
2022/06/21 05:12:27;;;;;;;5.53;3.87;;;;;;;14.67;70.85;99653.17;3357970;83;20977;-82
2022/06/21 05:17:21;;;;;;;3.95;3.58;;;;;;;14.70;71.42;99652.25;3382091;83;21107;-82
2022/06/21 05:22:30;;;;;;;3.72;3.37;;;;;;;14.77;70.46;99645.59;3313613;83;20968;-82
2022/06/21 05:27:32;;;;;;;3.90;3.50;;;;;;;15.08;69.96;99650.27;3403382;83;20980;-82
2022/06/21 05:32:31;;;;;;;4.92;3.70;;;;;;;15.15;69.72;99650.58;3374913;83;21577;-82
2022/06/21 05:37:34;;;;;;;4.20;3.90;;;;;;;15.08;69.02;99647.66;3377972;82;20999;-82
2022/06/21 05:42:28;;;;;;;10.48;6.03;;;;;;;14.99;69.27;99647.83;3397908;82;22104;-82
2022/06/21 05:47:43;;;;;;;6.90;3.52;;;;;;;14.83;69.29;99653.33;3402860;82;21473;-82
2022/06/21 05:52:40;;;;;;;3.87;3.47;;;;;;;14.74;69.41;99649.56;3418796;82;20934;-83
2022/06/21 05:57:44;;;;;;;4.90;3.37;;;;;;;14.66;69.27;99655.36;3385605;83;26164;-82
2022/06/21 06:02:41;;;;;;;5.00;3.70;;;;;;;14.58;69.88;99650.72;3360449;83;20973;-82
2022/06/21 06:07:43;;;;;;;8.10;4.00;;;;;;;14.43;69.30;99648.73;3346157;83;21292;-82
2022/06/21 06:12:42;;;;;;;4.45;4.00;;;;;;;14.33;69.21;99641.92;3369110;82;20979;-82
2022/06/21 06:17:56;;;;;;;4.92;4.53;;;;;;;14.62;69.27;99652.38;3371463;83;20991;-82
2022/06/21 06:23:05;;;;;;;4.62;3.98;;;;;;;14.80;68.88;99645.52;3358351;83;20917;-82
2022/06/21 06:28:22;;;;;;;5.40;4.22;;;;;;;15.12;67.32;99645.39;3428781;82;21571;-82
2022/06/21 06:33:24;;;;;;;3.47;3.27;;;;;;;15.19;67.07;99626.05;3269420;87;22118;-82
2022/06/21 06:38:17;;;;;;;4.20;3.20;;;;;;;15.78;66.34;99636.69;3272997;85;20987;-82
2022/06/21 06:43:35;;;;;;;3.40;3.10;;;;;;;15.83;66.10;99632.22;3308890;85;21031;-83
2022/06/21 06:48:31;;;;;;;5.50;3.20;;;;;;;15.19;67.10;99632.59;3313000;85;21549;-83
2022/06/21 06:53:31;;;;;;;4.60;3.63;;;;;;;14.64;67.79;99634.91;3306666;85;21117;-82
2022/06/21 06:58:48;;;;;;;3.77;3.47;;;;;;;14.31;68.32;99642.39;3347465;85;21149;-82
2022/06/21 07:03:52;;;;;;;4.42;3.12;;;;;;;14.51;68.57;99642.06;3345542;85;21067;-82
2022/06/21 07:08:58;;;;;;;2.22;2.08;;;;;;;15.07;67.67;99635.45;3404869;82;21004;-82
2022/06/21 07:13:53;;;;;;;2.47;1.92;;;;;;;14.83;66.76;99650.70;3439824;80;20942;-82
2022/06/21 07:18:49;;;;;;;4.35;2.22;;;;;;;14.70;67.09;99657.02;3415860;80;21072;-85
2022/06/21 07:23:42;;;;;;;1.62;1.52;;;;;;;16.29;65.16;99652.13;3409420;82;21469;-84
2022/06/21 07:29:01;;;;;;;3.67;2.05;;;;;;;17.55;62.70;99647.19;3424624;82;21549;-85
2022/06/21 07:34:28;;;;;;;2.65;1.98;;;;;;;16.55;64.30;99657.22;3399893;82;20981;-88
2022/06/21 07:39:25;;;;;;;2.45;1.85;;;;;;;15.53;65.49;99676.46;3364861;82;21002;-85
2022/06/21 07:44:48;;;;;;;2.45;2.20;;;;;;;14.98;67.64;99678.35;3443458;80;21482;-81
2022/06/21 07:49:47;;;;;;;3.72;2.35;;;;;;;15.32;67.94;99672.95;3463893;82;21163;-85
2022/06/21 07:54:47;;;;;;;2.20;2.00;;;;;;;15.04;68.37;99670.41;3385072;82;21046;-85
2022/06/21 07:59:43;;;;;;;3.67;1.87;;;;;;;14.43;68.35;99684.05;3441343;82;20957;-83
2022/06/21 08:10:23;;;;;;;2.10;1.80;;;;;;;14.17;69.03;99687.48;3421528;81;21559;-83
2022/06/21 08:15:15;;;;;;;2.65;1.95;;;;;;;14.87;67.97;99679.00;3426861;80;21256;-83
2022/06/21 08:20:23;;;;;;;5.10;2.00;;;;;;;15.11;67.18;99675.06;3417209;80;20945;-81
2022/06/21 08:25:29;;;;;;;2.67;2.20;;;;;;;14.99;67.75;99684.47;3465092;80;21048;-84
2022/06/21 08:30:37;;;;;;;1.80;1.70;;;;;;;14.81;67.60;99683.04;3320181;83;21024;-83
2022/06/21 08:35:34;;;;;;;2.72;2.17;;;;;;;14.72;68.09;99685.36;3320216;83;21092;-80
2022/06/21 08:40:35;;;;;;;;;;;;;;;14.91;67.68;99679.80;3318531;84;21488;-81
2022/06/21 08:45:53;;;;;;;3.27;2.35;;;;;;;15.14;66.96;99665.86;3304226;84;20151;-80
2022/06/21 08:51:17;;;;;;;4.17;3.02;;;;;;;14.66;67.78;99691.98;3320987;83;21020;-83
2022/06/21 08:56:17;;;;;;;3.10;2.80;;;;;;;14.27;69.27;99706.05;3366499;83;20949;-82
2022/06/21 09:01:34;;;;;;;2.77;2.40;;;;;;;13.91;70.02;99689.98;3351711;83;21749;-84
2022/06/21 09:06:52;;;;;;;4.50;3.72;;;;;;;13.82;71.15;99696.19;3330099;81;39238;-85
2022/06/21 09:11:51;;;;;;;3.40;3.10;;;;;;;14.13;71.09;99704.07;3467381;81;21486;-85
2022/06/21 09:17:06;;;;;;;4.60;3.08;;;;;;;14.27;70.91;99721.73;3438806;81;20987;-83
2022/06/21 09:22:23;;;;;;;3.15;2.27;;;;;;;14.62;70.72;99711.24;3401531;82;21540;-87
2022/06/21 09:27:26;;;;;;;4.60;2.45;;;;;;;14.60;70.31;99711.27;3415457;82;20999;-84
2022/06/21 09:32:44;;;;;;;2.58;1.90;;;;;;;14.82;70.63;99703.92;3406404;82;20983;-85
2022/06/21 09:37:51;;;;;;;;;;;;;;;15.15;69.61;99696.39;3474588;80;20993;-87
2022/06/21 09:43:17;;;;;;;4.35;2.15;;;;;;;15.70;68.73;99701.45;3407737;82;20432;-85
2022/06/21 09:48:32;;;;;;;3.02;1.87;;;;;;;15.51;69.05;99704.45;3421786;83;21046;-85
2022/06/21 09:53:57;;;;;;;3.08;1.95;;;;;;;15.87;67.55;99695.46;3338968;84;21054;-85
2022/06/21 09:59:03;;;;;;;3.50;1.80;;;;;;;15.87;68.68;99702.02;3295557;85;21565;-85
2022/06/21 10:04:18;;;;;;;2.05;1.80;;;;;;;15.64;68.02;99703.30;3262079;85;21598;-82
2022/06/21 10:09:36;;;;;;;2.08;1.70;;;;;;;15.04;68.19;99714.02;3231105;86;22185;-81
2022/06/21 10:14:57;;;;;;;4.17;1.80;;;;;;;14.53;68.48;99719.20;3238634;86;21640;-83
2022/06/21 10:20:15;;;;;;;2.98;2.20;;;;;;;14.38;69.20;99725.08;3260268;86;21081;-83
2022/06/21 10:25:09;;;;;;;;;;;;;;;14.55;70.11;99721.34;3236635;86;21701;-82
2022/06/21 10:30:25;;;;;;;2.45;2.00;;;;;;;17.19;66.99;99718.20;3290926;84;20138;-83
2022/06/21 10:35:55;;;;;;;2.98;1.67;;;;;;;18.78;63.20;99697.33;3221145;87;21606;-81
2022/06/21 10:40:58;;;;;;;2.55;1.67;;;;;;;19.34;61.32;99701.16;3231484;87;21474;-84
2022/06/21 10:46:11;;;;;;;3.40;1.92;;;;;;;19.16;62.43;99692.59;3238537;85;20980;-86
2022/06/21 10:51:25;;;;;;;3.12;1.45;;;;;;;20.02;61.50;99694.76;3285269;86;21860;-83
2022/06/21 11:02:07;;;;;;;3.62;1.80;;;;;;;20.27;58.36;99695.98;3327463;84;22273;-83
2022/06/21 11:07:30;;;;;;;3.27;1.57;;;;;;;18.70;59.50;99684.89;3402746;81;20921;-80
2022/06/21 11:12:56;;;;;;;2.05;1.62;;;;;;;18.71;60.41;99675.63;3370457;81;20932;-83
2022/06/21 11:18:13;;;;;;;2.75;1.62;;;;;;;18.70;60.51;99674.36;3393187;81;21064;-82
2022/06/21 11:23:34;;;;;;;4.22;1.57;;;;;;;19.27;58.98;99661.91;3444542;81;21004;-85
2022/06/21 11:29:09;;;;;;;4.10;1.45;;;;;;;19.51;55.75;99658.83;3452819;81;20855;-82
2022/06/21 11:34:44;;;;;;;3.50;1.80;;;;;;;19.16;56.66;99660.51;3507287;81;20966;-82
2022/06/21 11:40:04;;;;;;;3.62;1.47;;;;;;;18.55;58.07;99648.09;3445805;81;21265;-79
2022/06/21 11:45:19;;;;;;;3.45;1.30;;;;;;;17.71;58.82;99690.52;3397857;82;22086;-79
2022/06/21 11:50:24;;;;;;;2.08;1.80;;;;;;;16.80;61.28;99685.48;3373164;82;20980;-79
2022/06/21 11:55:30;;;;;;;4.15;2.02;;;;;;;17.74;64.22;99666.74;3388686;82;21378;-80
2022/06/21 12:00:34;;;;;;;3.30;1.65;;;;;;;18.65;63.77;99646.86;3378735;83;21293;-79
2022/06/21 12:05:46;;;;;;;1.72;1.20;;;;;;;19.43;61.71;99646.80;3398672;82;20970;-80
2022/06/21 12:10:51;;;;;;;3.12;1.22;;;;;;;18.94;59.60;99653.82;3405684;82;20966;-81
2022/06/21 12:16:07;;;;;;;3.17;1.35;;;;;;;18.00;60.95;99673.05;3413510;82;21453;-82
2022/06/21 12:21:07;;;;;;;2.02;1.10;;;;;;;17.29;61.80;99684.22;3405297;82;20993;-84
2022/06/21 12:25:59;;;;;;;3.08;1.47;;;;;;;17.21;61.75;99682.27;3447924;82;20972;-83
2022/06/21 12:30:50;;;;;;;1.75;0.75;;;;;;;16.97;61.92;99699.05;3408572;80;21450;-84
2022/06/21 12:35:47;;;;;;;1.47;0.85;;;;;;;16.52;61.82;99734.22;3421659;80;22319;-87
2022/06/21 12:40:52;;;;;;;6.60;1.00;;;;;;;15.67;63.92;99743.43;3436709;80;20971;-85
2022/06/21 12:45:54;;;;;;;0.68;0.60;;;;;;;15.17;65.63;99735.19;3447701;81;20930;-82
2022/06/21 12:50:57;;;;;;;2.30;0.82;;;;;;;15.43;66.96;99709.84;3424623;80;20966;-83
2022/06/21 12:56:15;;;;;;;2.42;1.00;;;;;;;15.70;66.78;99721.11;3412614;81;20967;-82
2022/06/21 13:01:15;;;;;;;2.70;0.98;;;;;;;16.31;66.68;99717.66;3466311;82;21478;-83
2022/06/21 13:06:30;;;;;;;0.70;0.70;;;;;;;16.84;66.02;99713.41;3470944;82;20979;-83
2022/06/21 13:11:36;;;;;;;0.70;0.50;;;;;;;17.41;66.70;99707.54;3485007;82;20951;-84
2022/06/21 13:16:59;;;;;;;1.50;0.93;;;;;;;17.67;64.90;99704.63;3471687;80;21546;-82
2022/06/21 13:22:29;;;;;;;1.90;0.95;;;;;;;17.94;64.77;99710.92;3413878;81;20986;-82
2022/06/21 13:28:00;;;;;;;0.62;0.62;;;;;;;18.26;65.12;99709.95;3438060;82;22400;-82
2022/06/21 13:33:14;;;;;;;1.82;0.90;;;;;;;18.38;63.34;99705.20;3333238;84;21050;-81
2022/06/21 13:38:24;;;;;;;2.58;0.72;;;;;;;18.20;62.24;99699.59;3452963;82;21507;-83
2022/06/21 13:43:29;;;;;;;1.37;0.70;;;;;;;18.20;62.63;99702.22;3205547;87;20984;-81
2022/06/21 13:48:41;;;;;;;0.85;0.80;;;;;;;18.42;61.70;99696.30;3257567;86;21464;-83
2022/06/21 13:54:07;;;;;;;1.25;0.80;;;;;;;18.65;61.41;99697.76;3235827;86;21543;-88
2022/06/21 13:59:09;;;;;;;1.67;0.90;;;;;;;18.72;60.73;99700.17;3243965;86;22171;-91
2022/06/21 14:04:36;;;;;;;0.93;0.70;;;;;;;19.11;59.98;99697.16;3247738;86;20932;-91
2022/06/21 14:09:44;;;;;;;1.12;0.70;;;;;;;18.93;59.33;99711.81;3248492;87;26656;-88
2022/06/21 14:14:58;;;;;;;1.52;0.80;;;;;;;18.14;59.78;99707.69;3238825;87;21028;-92
2022/06/21 14:20:22;;;;;;;2.80;0.90;;;;;;;17.52;60.38;99715.12;3282979;85;21478;-85
2022/06/21 14:25:29;;;;;;;1.27;0.75;;;;;;;17.60;60.74;99729.36;3334839;84;20968;-86
2022/06/21 14:30:48;;;;;;;3.33;0.82;;;;;;;17.37;60.31;99717.73;3277178;84;21876;-88
2022/06/21 14:35:50;;;;;;;3.12;1.15;;;;;;;17.19;60.53;99720.82;3283134;84;21455;-81
2022/06/21 14:41:10;;;;;;;3.30;0.88;;;;;;;17.18;60.92;99726.53;3322842;84;21020;-80
2022/06/21 14:46:25;;;;;;;1.47;0.88;;;;;;;17.33;61.09;99731.83;3402229;82;21137;-80
2022/06/21 14:51:36;;;;;;;3.05;1.25;;;;;;;17.47;60.56;99719.64;3474806;82;21015;-82
2022/06/21 14:56:47;;;;;;;2.60;0.88;;;;;;;17.18;60.83;99731.79;3398518;80;21024;-86
2022/06/21 15:01:53;;;;;;;1.27;1.00;;;;;;;17.02;61.15;99748.38;3421171;82;21007;-88
2022/06/21 15:07:07;;;;;;;2.72;1.45;;;;;;;17.28;61.38;99739.00;3389331;82;20958;-87
2022/06/21 15:12:06;;;;;;;1.42;0.88;;;;;;;18.33;61.00;99729.48;3439629;81;21562;-88
2022/06/21 15:17:03;;;;;;;1.80;1.10;;;;;;;19.15;59.99;99723.33;3430571;81;21029;-88
2022/06/21 15:22:00;;;;;;;1.98;0.80;;;;;;;19.69;57.43;99717.50;3451439;80;21006;-85
2022/06/21 15:26:56;;;;;;;1.92;1.10;;;;;;;20.07;58.13;99713.91;3413863;82;21047;-86
2022/06/21 15:32:01;;;;;;;3.30;0.82;;;;;;;20.45;56.14;99719.94;3473657;81;21051;-86
2022/06/21 15:37:04;;;;;;;4.70;1.05;;;;;;;20.06;55.75;99720.09;3406195;82;21219;-86
2022/06/21 15:42:22;;;;;;;1.40;0.90;;;;;;;19.58;55.67;99723.59;3445246;82;20980;-84
2022/06/21 15:53:15;;;;;;;3.83;1.20;;;;;;;18.82;56.40;99747.72;3420295;82;20967;-84
2022/06/21 15:58:25;;;;;;;2.35;0.90;;;;;;;18.34;56.88;99757.53;3389411;82;21525;-84
2022/06/21 16:03:31;;;;;;;1.80;0.75;;;;;;;18.12;55.58;99767.38;3388069;81;21534;-84
2022/06/21 16:08:43;;;;;;;1.67;0.98;;;;;;;17.91;54.47;99759.19;3427725;81;21736;-84
2022/06/21 16:13:35;;;;;;;1.65;1.27;;;;;;;18.13;53.64;99754.61;3405075;81;21010;-84
2022/06/21 16:18:34;;;;;;;4.50;1.70;;;;;;;18.17;54.40;99766.79;3371921;83;21021;-84
2022/06/21 16:23:36;;;;;;;1.15;0.78;;;;;;;18.18;54.62;99760.61;3415610;82;20996;-84
2022/06/21 16:28:52;;;;;;;2.70;1.98;;;;;;;17.98;54.66;99759.02;3367739;82;20968;-84
2022/06/21 16:33:49;;;;;;;3.20;1.20;;;;;;;18.40;54.59;99762.16;3416339;82;20940;-84
2022/06/21 16:39:00;;;;;;;5.08;1.20;;;;;;;18.73;54.07;99758.52;3426629;82;20988;-83
2022/06/21 16:44:00;;;;;;;2.55;1.30;;;;;;;18.89;54.20;99775.58;3423432;83;21027;-84
2022/06/21 16:49:00;;;;;;;3.33;1.27;;;;;;;18.57;54.36;99776.10;3387692;83;21019;-84
2022/06/21 16:53:58;;;;;;;3.50;1.05;;;;;;;18.32;54.52;99781.72;3436555;83;21317;-83
2022/06/21 16:59:00;;;;;;;2.15;1.17;;;;;;;18.25;54.79;99791.09;3384819;82;21015;-83
2022/06/21 17:03:58;;;;;;;4.78;1.07;;;;;;;18.06;55.05;99784.63;3410765;83;20978;-82
2022/06/21 17:08:52;;;;;;;3.80;2.33;;;;;;;18.02;55.41;99789.58;3440592;82;20980;-82
2022/06/21 17:13:46;;;;;;;2.50;1.15;;;;;;;18.24;55.59;99788.06;3386787;83;21505;-82
2022/06/21 17:18:43;;;;;;;1.50;0.95;;;;;;;18.22;55.16;99791.17;3378136;83;21114;-82
2022/06/21 17:24:10;;;;;;;2.50;1.60;;;;;;;18.05;55.26;99796.93;3425104;83;21035;-83
2022/06/21 17:29:05;;;;;;;2.33;0.98;;;;;;;17.93;55.43;99797.73;3364735;84;21518;-82
2022/06/21 17:34:15;;;;;;;2.00;1.00;;;;;;;17.77;55.62;99811.26;3344081;83;21027;-82
2022/06/21 17:39:11;;;;;;;0.80;0.80;;;;;;;17.64;55.71;99819.08;3335438;83;20976;-82
2022/06/21 17:44:08;;;;;;;2.55;1.22;;;;;;;17.45;55.72;99833.13;3349425;83;21541;-82
2022/06/21 17:49:05;;;;;;;1.02;0.90;;;;;;;17.26;56.12;99835.34;3356524;83;20954;-81
2022/06/21 17:54:10;;;;;;;2.10;0.98;;;;;;;17.09;56.65;99828.73;3319955;83;21027;-82
2022/06/21 17:59:16;;;;;;;1.77;1.02;;;;;;;16.91;56.94;99829.19;3359634;82;21156;-82
2022/06/21 18:04:20;;;;;;;2.87;1.72;;;;;;;16.71;57.52;99831.78;3397886;82;21023;-82
2022/06/21 18:09:20;;;;;;;4.17;1.30;;;;;;;16.55;57.62;99836.50;3369512;82;21113;-82
2022/06/21 18:14:23;;;;;;;2.42;1.10;;;;;;;16.38;57.97;99844.73;3349173;83;21529;-82
2022/06/21 18:19:19;;;;;;;1.87;1.15;;;;;;;16.26;58.21;99840.17;3364659;83;21213;-82
2022/06/21 18:24:34;;;;;;;2.87;1.10;;;;;;;16.16;58.33;99834.26;3371601;82;20974;-82
2022/06/21 18:29:43;;;;;;;3.80;1.20;;;;;;;16.07;58.47;99839.69;3323909;83;21000;-82
2022/06/21 18:34:36;;;;;;;2.95;1.05;;;;;;;15.94;58.67;99824.20;3301903;85;21249;-82
2022/06/21 18:40:24;;;;;;;3.00;0.82;;;;;;;15.82;58.80;99838.39;3301803;84;21179;-82
2022/06/21 18:45:36;;;;;;;1.85;1.10;;;;;;;15.74;58.90;99847.24;3311206;84;20938;-82
2022/06/21 18:51:02;;;;;;;2.30;1.12;;;;;;;15.60;58.69;99861.92;3305701;84;21336;-82
2022/06/21 18:56:28;;;;;;;2.45;1.35;;;;;;;15.52;58.58;99859.41;3324239;84;21003;-82
2022/06/21 19:01:25;;;;;;;2.25;1.30;;;;;;;15.42;58.64;99859.17;3374050;84;20913;-82
2022/06/21 19:12:39;;;;;;;2.08;1.22;;;;;;;15.21;59.40;99871.70;3392424;82;21460;-83
2022/06/21 19:17:51;;;;;;;1.60;1.30;;;;;;;15.13;59.70;99864.85;3425783;82;20911;-82
2022/06/21 19:23:19;;;;;;;2.33;1.45;;;;;;;15.00;60.10;99866.80;3422974;82;21015;-82
2022/06/21 19:28:28;;;;;;;4.65;1.35;;;;;;;14.89;60.46;99872.64;3361143;83;21188;-82
2022/06/21 19:33:59;;;;;;;4.35;2.02;;;;;;;14.76;61.22;99878.03;3313636;83;20973;-82
2022/06/21 19:39:03;;;;;;;3.58;1.42;;;;;;;14.71;61.84;99886.84;3328727;83;20983;-82
2022/06/21 19:44:12;;;;;;;2.00;1.52;;;;;;;14.65;62.45;99895.19;3426707;82;21047;-82
2022/06/21 19:49:06;;;;;;;3.02;1.65;;;;;;;14.65;62.72;99903.48;3391025;82;20972;-82
2022/06/21 19:54:08;;;;;;;2.00;1.50;;;;;;;14.62;63.39;99915.29;3400561;81;22262;-82
2022/06/21 19:59:04;;;;;;;4.30;1.77;;;;;;;14.59;63.56;99916.17;3411266;82;21064;-82
2022/06/21 20:04:01;;;;;;;2.60;1.80;;;;;;;14.49;63.87;99923.25;3394102;81;20991;-83
2022/06/21 20:09:04;;;;;;;3.15;1.30;;;;;;;14.44;64.20;99923.73;3382910;82;21007;-83
2022/06/21 20:14:16;;;;;;;2.25;1.70;;;;;;;14.41;64.56;99919.84;3434649;81;21011;-83
2022/06/21 20:19:45;;;;;;;3.33;1.72;;;;;;;14.40;64.86;99931.66;3390955;82;21164;-83
2022/06/21 20:25:00;;;;;;;3.37;1.45;;;;;;;14.35;64.90;99922.54;3446270;81;20929;-82
2022/06/21 20:29:55;;;;;;;3.58;1.72;;;;;;;14.30;64.99;99921.72;3433556;82;20951;-82
2022/06/21 20:35:11;;;;;;;1.80;1.27;;;;;;;14.24;65.21;99921.80;3459959;81;22326;-81
2022/06/21 20:40:30;;;;;;;1.95;1.50;;;;;;;14.24;65.45;99920.50;3454710;81;21015;-82
2022/06/21 20:45:26;;;;;;;4.10;1.55;;;;;;;14.19;65.39;99915.75;3483405;80;21108;-82
2022/06/21 20:50:28;;;;;;;3.37;1.77;;;;;;;14.15;65.83;99932.33;3440516;81;20971;-82
2022/06/21 20:55:20;;;;;;;4.70;2.02;;;;;;;14.11;65.74;99940.64;3395848;83;20907;-82
2022/06/21 21:00:13;;;;;;;4.37;1.30;;;;;;;14.07;66.28;99938.95;3367298;83;20980;-82
2022/06/21 21:05:18;;;;;;;5.12;1.80;;;;;;;13.99;66.36;99956.02;3403902;82;21003;-81
2022/06/21 21:10:18;;;;;;;2.98;1.80;;;;;;;13.89;66.58;99958.28;3407154;82;21484;-82
2022/06/21 21:15:15;;;;;;;3.20;1.72;;;;;;;13.85;66.68;99957.89;3382657;83;20962;-81
2022/06/21 21:20:18;;;;;;;4.40;1.90;;;;;;;13.78;66.96;99958.83;3374583;83;20999;-81
2022/06/21 21:25:39;;;;;;;2.87;2.02;;;;;;;13.72;67.31;99963.22;3376797;82;20945;-81
2022/06/21 21:30:57;;;;;;;9.68;3.22;;;;;;;13.65;67.63;99958.06;3390309;83;21025;-81
2022/06/21 21:36:02;;;;;;;3.33;2.22;;;;;;;13.62;67.86;99955.46;3217815;87;22945;-81
2022/06/21 21:41:19;;;;;;;4.85;2.27;;;;;;;13.56;68.33;99948.55;3236440;87;21253;-81
2022/06/21 21:46:17;;;;;;;3.17;1.90;;;;;;;13.50;68.56;99949.47;3245593;87;21016;-81
2022/06/21 21:51:10;;;;;;;;;;;;;;;13.43;68.89;99952.11;3179235;87;22211;-82
2022/06/21 21:56:04;;;;;;;3.83;2.00;;;;;;;13.40;69.36;99953.45;3229464;88;20547;-82
2022/06/21 22:01:07;;;;;;;2.35;2.15;;;;;;;13.37;69.56;99944.33;3205576;87;21065;-82
2022/06/21 22:06:22;;;;;;;3.95;2.37;;;;;;;13.34;69.73;99929.12;3222955;86;21017;-82
2022/06/21 22:11:53;;;;;;;2.90;2.12;;;;;;;13.33;70.10;99936.51;3317015;83;21129;-82
2022/06/21 22:17:04;;;;;;;4.80;2.30;;;;;;;13.29;70.23;99926.94;3464561;81;20987;-82
2022/06/21 22:21:56;;;;;;;4.28;2.40;;;;;;;13.27;70.54;99923.89;3244620;86;21061;-82
2022/06/21 22:26:47;;;;;;;4.37;3.02;;;;;;;13.22;70.76;99923.94;3224942;84;21173;-82
2022/06/21 22:31:46;;;;;;;3.67;2.30;;;;;;;13.20;70.96;99927.00;3210369;84;21097;-82
2022/06/21 22:36:52;;;;;;;3.70;2.37;;;;;;;13.20;71.22;99937.86;3212316;86;21047;-82
2022/06/21 22:41:49;;;;;;;4.30;2.00;;;;;;;13.20;71.44;99955.72;3314481;84;21094;-82
2022/06/21 22:46:40;;;;;;;3.03;1.93;;;;;;;13.19;71.54;99965.72;3277242;85;21258;-82
2022/06/21 22:51:35;;;;;;;3.98;2.02;;;;;;;13.16;71.66;99973.55;3253580;85;21125;-82
2022/06/21 22:56:29;;;;;;;3.05;2.33;;;;;;;13.16;71.75;99980.08;3301158;82;21004;-82
2022/06/21 23:01:34;;;;;;;2.67;2.25;;;;;;;13.13;71.82;99984.03;3368201;83;21529;-82
2022/06/21 23:06:32;;;;;;;4.62;2.20;;;;;;;13.14;71.85;99987.05;3425287;81;20959;-82
2022/06/21 23:11:27;;;;;;;2.27;2.08;;;;;;;13.14;71.98;99990.97;3443308;80;21022;-82
2022/06/21 23:16:32;;;;;;;2.27;1.82;;;;;;;13.11;71.99;99984.45;3426363;81;21098;-82
2022/06/21 23:21:29;;;;;;;3.92;2.37;;;;;;;13.09;72.23;99987.09;3450595;80;21022;-82
2022/06/21 23:26:44;;;;;;;3.50;2.02;;;;;;;13.07;72.31;99978.83;3385344;82;20999;-82
2022/06/21 23:31:41;;;;;;;2.00;1.80;;;;;;;13.05;72.31;99979.28;3383215;83;21529;-82
2022/06/21 23:36:32;;;;;;;3.25;2.27;;;;;;;13.01;72.39;99981.48;3404362;83;20928;-82
2022/06/21 23:41:28;;;;;;;2.52;2.00;;;;;;;12.95;72.43;99985.84;3401550;80;21092;-83
2022/06/21 23:46:28;;;;;;;5.53;2.40;;;;;;;12.93;72.56;99994.54;3407435;81;21009;-83
2022/06/21 23:51:22;;;;;;;2.42;2.05;;;;;;;12.90;72.52;99992.83;3421842;81;21126;-83
2022/06/21 23:56:15;;;;;;;2.92;2.22;;;;;;;12.85;72.80;99991.97;3411070;82;21442;-83
